Weather observations for the past three days for
Unalakleet
Metric (Imperial)
Date Time (akdt) Wind (kph) Vis. (km) Weather Sky Cond. Temperature (ºC) Relative Humidity Wind Chill (°C) Heat Index (°C) Pressure Precipitation (cm)
Air Dwpt 6 hour altimeter (cm) sea level (mb) 1 hr 3 hr 6 hr
Max. Min.
10 07:56 SW 6 16.09 Overcast OVC006 0.6 -0.6 92% 74.8 997.4
10 06:56 SW 7 16.09 Overcast OVC006 0 -0.6 96% -2 74.78 997.4
10 05:56 S 11 16.09 Overcast OVC004 0 -0.6 96% -3 74.78 997.2
10 04:56 S 6 16.09 Overcast BKN021 OVC026 0 -0.6 96% 74.78 997.2
10 03:56 NE 6 16.09 Overcast OVC022 0.6 0 4.4 0.6 96% 74.78 997.3
10 02:56 NW 7 16.09 Light Rain OVC024 1.1 0 92% -1 74.78 997.4
10 01:56 NW 6 16.09 Unknown Precip OVC026 1.7 0 89% 74.8 997.5
10 00:56 Calm 16.09 Light Rain OVC035 2.8 0 82% 74.8 997.7
09 23:56 NE 11 16.09 Overcast FEW043 BKN060 OVC075 3.9 -1.1 70% 1 74.8 997.5
09 22:56 NE 15 16.09 Overcast FEW050 OVC065 4.4 -1.7 65% 1 74.78 997.4
09 21:56 NW 15 16.09 Overcast OVC044 1.7 -1.1 6.1 1.7 82% -2 74.78 997.2
09 20:56 NW 15 16.09 Overcast OVC044 2.2 -1.7 76% -1 74.78 997.3
09 19:56 NE 13 16.09 Overcast OVC046 5.6 -3.3 53% 3 74.8 997.5
09 18:56 N 13 14.48 Overcast OVC042 5.6 -2.8 55% 3 74.8 997.6
09 17:56 NE 13 16.09 Overcast SCT040 OVC047 5 -2.2 60% 2 74.83 997.8
09 16:56 N 22 16.09 Overcast BKN035 OVC048 5 -2.2 60% 1 74.85 998.3
09 15:56 NE 30 G 35 16.09 Overcast OVC040 5 -2.8 5 -2.2 57% 0 74.88 998.6
09 14:56 Calm 16.09 Mostly Cloudy BKN041 BKN048 1.1 -2.8 76% 74.93 999.2
09 13:56 SW 15 16.09 Fair CLR 1.7 -3.3 70% -2 74.98 999.8
09 12:56 W 11 16.09 Partly Cloudy SCT085 -1.1 -3.9 82% -5 75.01 1000.4
09 11:56 W 11 16.09 Partly Cloudy SCT070 -0.6 -3.9 79% -4 75.06 1000.9
09 10:56 SW 11 16.09 Fair CLR -0.6 -3.3 82% -4 75.08 1001.3
09 09:56 SW 9 16.09 A Few Clouds FEW033 -2.2 -3.3 -2.2 -5.6 92% -5 75.13 1001.9
09 08:56 S 6 16.09 A Few Clouds FEW070 -3.3 -4.4 92% 75.13 1002.2
09 07:56 SE 7 16.09 Fair CLR -5 -6.1 92% -8 75.16 1002.4
09 06:56 Calm 16.09 Fair CLR -5 -6.1 92% 75.18 1002.6
09 05:56 E 11 16.09 Fair CLR -5 -6.1 92% -9 75.23 1003.2
09 04:56 E 13 16.09 Fair CLR -5 -6.1 92% -10 75.23 1003.4
09 03:56 Calm 16.09 Partly Cloudy SCT075 -4.4 -6.1 1.7 -4.4 88% 75.29 1003.9
09 02:56 NW 17 16.09 Fair CLR -2.2 -6.1 75% -7 75.34 1004.6
09 01:56 NW 17 16.09 Fair CLR -2.2 -5 81% -7 75.36 1005.1
09 00:56 NW 17 16.09 A Few Clouds FEW070 -1.1 -5.6 72% -6 75.41 1005.7
08 23:56 NW 13 16.09 Fair CLR -0.6 -5 72% -4 75.46 1006.3
08 22:56 NW 26 16.09 Fair CLR 1.1 -5.6 61% -4 75.46 1006.5
08 21:56 NW 24 16.09 Fair CLR 1.7 -3.9 2.2 0.6 67% -3 75.49 1006.9
08 20:56 NW 26 16.09 Fair CLR 1.7 -2.8 72% -3 75.57 1007.6
08 19:56 NW 31 16.09 Fair CLR 2.2 -3.3 67% -3 75.59 1008.2
08 18:56 NW 31 16.09 Fair CLR 2.2 -3.3 67% -3 75.67 1009.0
08 17:56 NW 33 16.09 Fair and Breezy CLR 2.2 -2.8 70% -3 75.72 1009.8
08 16:56 NW 30 16.09 Fair CLR 1.7 -2.8 72% -4 75.79 1010.6
08 15:56 NW 28 16.09 Fair CLR 1.7 -2.8 1.7 -4.4 72% -4 75.84 1011.5
08 14:56 NW 31 16.09 Fair CLR 1.1 -2.8 76% -5 75.9 1012.2
08 13:56 NW 31 16.09 Fair CLR 0.6 -3.3 75% -5 75.97 1013.0
08 12:56 NW 26 16.09 Fair CLR -0.6 -3.3 82% -6 76.02 1013.9
08 11:56 NW 22 16.09 Fair CLR -1.1 -3.9 82% -7 76.07 1014.6
08 10:56 NW 7 16.09 Fair CLR -2.8 -6.7 75% -5 76.15 1015.6
08 09:56 SW 7 16.09 Fair CLR -4.4 -6.7 -2.8 -6.7 84% -7 76.2 1016.3
08 08:56 W 7 16.09 Fair CLR -5 -7.2 85% -8 76.23 1016.7
08 07:56 Calm 16.09 Fair CLR -4.4 -7.8 77% 76.25 1017.0
08 06:56 Calm 16.09 Fair CLR -6.1 -8.9 81% 76.28 1017.4
08 05:56 Vrbl 7 16.09 Fair CLR -5.6 -8.3 82% -9 76.3 1017.7
08 04:56 NE 15 16.09 Fair CLR -3.3 -8.3 69% -8 76.33 1017.8
08 03:56 NE 15 16.09 Fair CLR -3.3 -8.3 1.1 -6.1 69% -8 76.33 1018.1
08 02:56 NE 9 16.09 Fair CLR -3.3 -7.8 71% -7 76.35 1018.4
08 01:56 NE 17 16.09 Fair CLR -2.8 -8.3 66% -8 76.35 1018.4
08 00:56 NE 15 16.09 Fair CLR -2.2 -7.8 66% -7 76.38 1018.5
07 23:56 N 11 16.09 A Few Clouds FEW047 -2.8 -6.1 78% -7 76.38 1018.6
07 22:56 NW 6 16.09 A Few Clouds FEW045 0 -5.6 66% 76.38 1018.6
07 21:56 SE 9 8.05 Light Rain FEW022 SCT028 BKN036 1.7 -5.6 1.7 -1.7 59% -1 76.35 1018.4
07 20:56 NW 22 16.09 Mostly Cloudy FEW041 SCT048 BKN060 0 -5 69% -5 76.35 1018.4
07 19:56 NW 30 G 43 14.48 Light Snow OVC060 -0.6 -4.4 76% -7 76.4 1018.8
07 18:56 NW 30 16.09 Overcast BKN045 OVC049 -0.6 -5 72% -7 76.4 1018.9
07 17:56 NW 28 16.09 Overcast OVC049 -0.6 -5 72% -7 76.45 1019.5
07 16:56 NW 28 16.09 Mostly Cloudy BKN047 -1.1 -5 75% -7 76.48 1019.9
07 15:56 NW 22 16.09 Mostly Cloudy FEW039 BKN075 -1.1 -5.6 -1.1 -3.9 72% -7 76.5 1020.4
07 14:56 NW 26 16.09 Overcast OVC075 -2.2 -6.1 75% -8 76.53 1020.6
07 13:56 NW 24 16.09 Fair CLR -2.8 -5.6 81% -9 76.53 1020.7
07 12:56 NW 20 16.09 A Few Clouds FEW075 -2.8 -5.6 81% -8 76.53 1020.8
07 11:56 NW 19 16.09 Fair CLR -3.3 -6.7 78% -9 76.56 1020.9
07 10:56 NW 17 16.09 Fair CLR -3.3 -6.7 78% -8 76.56 1021.0
07 09:56 NW 13 16.09 Mostly Cloudy BKN080 -3.3 -6.7 -3.3 -6.1 78% -8 76.56 1021.1
07 08:56 NW 9 16.09 Mostly Cloudy BKN085 -3.9 -7.2 78% -7 76.56 1020.8
Date Time (akdt) Wind (kph) Vis. (km) Weather Sky Cond. Air Dwpt Max. Min. Relative Humidity Wind Chill (°C) Heat Index (°C) altimeter (cm) sea level (mb) 1 hr 3 hr 6 hr
6 hour
Temperature (ºC) Pressure Precipitation (cm)